nws-alerts: Checking more than four warning/county codes can delay the loading of your pages. You should use a cron job to get the data.
^^
Station Historical Data
Daily Summary for April 17, 2018 Units:  Both    English   Metric
« Previous Day
Next Day »
Daily Weekly Monthly Yearly Custom
  High: Low: Average:
Temperature: TemperatureF °F /  -17.8 °C 28.9 °F /  -1.7 °C 48.8 °F /  9.3 °C
Dew Point: DewpointF °F /  -17.8 °C 26.8 °F /  -2.9 °C 38 °F /  3.3 °C
Humidity: Humidity% 46% 69%
Wind Speed: WindSpeedMPHmph /  0km/h - 0.2mph /  0.3km/h
Wind Gust: WindSpeedGustMPHmph /  0km/h - -
Wind- - SW
Pressure: PressureIn in /  0 hPa 29.98 in /  1015.1 hPa -
Precipitation: 0.00 in /  0 mm    
Historical Graphs
 
 
Tabular Data for April 17, 2018
Time Temperature Dew Point Pressure Wind Wind Speed Wind Gust Humidity Rainfall Rate (Hourly)
TemperatureF °F /  -17.8 °C DewpointF °F /  -17.8 °C PressureInin /  0hPa Calm     Humidity% HourlyPrecipInin /  0mm
00:04 34.5 °F /  1.4 °C 28.9 °F /  -1.7 °C 30.14in /  1020.5hPa Calm     80% 0.00in /  0mm
00:09 34.3 °F /  1.3 °C 29.1 °F /  -1.6 °C 30.14in /  1020.5hPa Calm     81% 0.00in /  0mm
00:15 34.2 °F /  1.2 °C 28.6 °F /  -1.9 °C 30.14in /  1020.5hPa Calm     80% 0.00in /  0mm
00:20 33.8 °F /  1 °C 28.2 °F /  -2.1 °C 30.14in /  1020.5hPa Calm     80% 0.00in /  0mm
00:25 33.6 °F /  0.9 °C 28.4 °F /  -2 °C 30.14in /  1020.5hPa Calm     81% 0.00in /  0mm
00:30 33.4 °F /  0.8 °C 28.2 °F /  -2.1 °C 30.13in /  1020.2hPa Calm     81% 0.00in /  0mm
00:36 33.1 °F /  0.6 °C 28.2 °F /  -2.1 °C 30.14in /  1020.5hPa Calm     82% 0.00in /  0mm
00:42 32.7 °F /  0.4 °C 28.2 °F /  -2.1 °C 30.14in /  1020.5hPa Calm     83% 0.00in /  0mm
00:47 32.5 °F /  0.3 °C 28.2 °F /  -2.1 °C 30.14in /  1020.5hPa Calm     84% 0.00in /  0mm
00:53 32.4 °F /  0.2 °C 28.0 °F /  -2.2 °C 30.14in /  1020.5hPa Calm     84% 0.00in /  0mm
00:58 32.2 °F /  0.1 °C 28.2 °F /  -2.1 °C 30.14in /  1020.5hPa Calm     85% 0.00in /  0mm
01:04 31.8 °F /  -0.1 °C 27.9 °F /  -2.3 °C 30.14in /  1020.5hPa Calm     85% 0.00in /  0mm
01:09 31.6 °F /  -0.2 °C 27.7 °F /  -2.4 °C 30.14in /  1020.5hPa Calm     85% 0.00in /  0mm
01:14 31.6 °F /  -0.2 °C 27.7 °F /  -2.4 °C 30.14in /  1020.5hPa Calm     85% 0.00in /  0mm
01:20 31.5 °F /  -0.3 °C 27.7 °F /  -2.4 °C 30.13in /  1020.2hPa Calm     86% 0.00in /  0mm
01:25 31.5 °F /  -0.3 °C 27.7 °F /  -2.4 °C 30.13in /  1020.2hPa Calm     86% 0.00in /  0mm
01:31 31.3 °F /  -0.4 °C 27.9 °F /  -2.3 °C 30.13in /  1020.2hPa Calm     87% 0.00in /  0mm
01:36 31.3 °F /  -0.4 °C 27.9 °F /  -2.3 °C 30.13in /  1020.2hPa Calm     87% 0.00in /  0mm
01:41 31.3 °F /  -0.4 °C 27.9 °F /  -2.3 °C 30.13in /  1020.2hPa Calm     87% 0.00in /  0mm
01:46 31.1 °F /  -0.5 °C 27.7 °F /  -2.4 °C 30.13in /  1020.2hPa Calm   1.0mph /  1.6km/h 87% 0.00in /  0mm
01:52 30.9 °F /  -0.6 °C 27.9 °F /  -2.3 °C 30.13in /  1020.2hPa Calm     88% 0.00in /  0mm
01:57 30.9 °F /  -0.6 °C 27.9 °F /  -2.3 °C 30.13in /  1020.2hPa Calm     88% 0.00in /  0mm
02:02 30.9 °F /  -0.6 °C 27.9 °F /  -2.3 °C 30.13in /  1020.2hPa Calm     88% 0.00in /  0mm
02:08 30.9 °F /  -0.6 °C 27.9 °F /  -2.3 °C 30.13in /  1020.2hPa Calm     88% 0.00in /  0mm
02:13 30.9 °F /  -0.6 °C 28.0 °F /  -2.2 °C 30.13in /  1020.2hPa Calm     89% 0.00in /  0mm
02:18 30.7 °F /  -0.7 °C 27.9 °F /  -2.3 °C 30.13in /  1020.2hPa Calm     89% 0.00in /  0mm
02:24 30.7 °F /  -0.7 °C 27.9 °F /  -2.3 °C 30.13in /  1020.2hPa Calm     89% 0.00in /  0mm
02:29 30.6 °F /  -0.8 °C 27.7 °F /  -2.4 °C 30.13in /  1020.2hPa Calm     89% 0.00in /  0mm
02:34 30.6 °F /  -0.8 °C 27.7 °F /  -2.4 °C 30.13in /  1020.2hPa Calm     89% 0.00in /  0mm
02:40 30.6 °F /  -0.8 °C 27.7 °F /  -2.4 °C 30.13in /  1020.2hPa Calm     89% 0.00in /  0mm
02:45 30.4 °F /  -0.9 °C 27.5 °F /  -2.5 °C 30.13in /  1020.2hPa Calm     89% 0.00in /  0mm
02:51 30.4 °F /  -0.9 °C 27.5 °F /  -2.5 °C 30.12in /  1019.9hPa Calm     89% 0.00in /  0mm
02:56 30.4 °F /  -0.9 °C 27.5 °F /  -2.5 °C 30.12in /  1019.9hPa Calm     89% 0.00in /  0mm
03:01 30.2 °F /  -1 °C 27.7 °F /  -2.4 °C 30.12in /  1019.9hPa Calm   1.0mph /  1.6km/h 90% 0.00in /  0mm
03:07 30.2 °F /  -1 °C 27.7 °F /  -2.4 °C 30.12in /  1019.9hPa Calm     90% 0.00in /  0mm
03:12 30.0 °F /  -1.1 °C 27.5 °F /  -2.5 °C 30.12in /  1019.9hPa Calm     90% 0.00in /  0mm
03:18 30.0 °F /  -1.1 °C 27.5 °F /  -2.5 °C 30.12in /  1019.9hPa Calm     90% 0.00in /  0mm
03:23 30.0 °F /  -1.1 °C 27.5 °F /  -2.5 °C 30.12in /  1019.9hPa Calm     90% 0.00in /  0mm
03:28 30.0 °F /  -1.1 °C 27.5 °F /  -2.5 °C 30.12in /  1019.9hPa Calm     90% 0.00in /  0mm
03:33 30.0 °F /  -1.1 °C 27.5 °F /  -2.5 °C 30.12in /  1019.9hPa Calm     90% 0.00in /  0mm
03:38 30.0 °F /  -1.1 °C 27.7 °F /  -2.4 °C 30.12in /  1019.9hPa Calm     91% 0.00in /  0mm
03:43 30.0 °F /  -1.1 °C 27.5 °F /  -2.5 °C 30.12in /  1019.9hPa Calm     90% 0.00in /  0mm
03:49 30.0 °F /  -1.1 °C 27.5 °F /  -2.5 °C 30.12in /  1019.9hPa Calm     90% 0.00in /  0mm
03:54 30.0 °F /  -1.1 °C 27.7 °F /  -2.4 °C 30.12in /  1019.9hPa Calm     91% 0.00in /  0mm
03:59 30.2 °F /  -1 °C 27.9 °F /  -2.3 °C 30.13in /  1020.2hPa Calm     91% 0.00in /  0mm
04:05 30.4 °F /  -0.9 °C 28.0 °F /  -2.2 °C 30.12in /  1019.9hPa Calm     91% 0.00in /  0mm
04:10 30.4 °F /  -0.9 °C 27.9 °F /  -2.3 °C 30.12in /  1019.9hPa Calm     90% 0.00in /  0mm
04:15 30.4 °F /  -0.9 °C 27.9 °F /  -2.3 °C 30.13in /  1020.2hPa Calm     90% 0.00in /  0mm
04:20 30.4 °F /  -0.9 °C 27.9 °F /  -2.3 °C 30.13in /  1020.2hPa Calm     90% 0.00in /  0mm
04:26 30.4 °F /  -0.9 °C 27.9 °F /  -2.3 °C 30.13in /  1020.2hPa Calm     90% 0.00in /  0mm
04:31 30.4 °F /  -0.9 °C 27.9 °F /  -2.3 °C 30.13in /  1020.2hPa Calm     90% 0.00in /  0mm
04:37 30.4 °F /  -0.9 °C 27.9 °F /  -2.3 °C 30.13in /  1020.2hPa Calm     90% 0.00in /  0mm
04:42 30.4 °F /  -0.9 °C 27.9 °F /  -2.3 °C 30.14in /  1020.5hPa Calm     90% 0.00in /  0mm
04:47 30.2 °F /  -1 °C 27.7 °F /  -2.4 °C 30.14in /  1020.5hPa Calm     90% 0.00in /  0mm
04:52 30.2 °F /  -1 °C 27.7 °F /  -2.4 °C 30.13in /  1020.2hPa Calm     90% 0.00in /  0mm
04:58 30.0 °F /  -1.1 °C 27.5 °F /  -2.5 °C 30.14in /  1020.5hPa Calm     90% 0.00in /  0mm
05:03 30.0 °F /  -1.1 °C 27.5 °F /  -2.5 °C 30.13in /  1020.2hPa Calm     90% 0.00in /  0mm
05:08 30.0 °F /  -1.1 °C 27.5 °F /  -2.5 °C 30.13in /  1020.2hPa Calm     90% 0.00in /  0mm
05:13 30.0 °F /  -1.1 °C 27.5 °F /  -2.5 °C 30.13in /  1020.2hPa Calm     90% 0.00in /  0mm
05:18 30.0 °F /  -1.1 °C 27.5 °F /  -2.5 °C 30.13in /  1020.2hPa Calm     90% 0.00in /  0mm
05:23 30.0 °F /  -1.1 °C 27.5 °F /  -2.5 °C 30.14in /  1020.5hPa Calm     90% 0.00in /  0mm
05:29 30.0 °F /  -1.1 °C 27.7 °F /  -2.4 °C 30.14in /  1020.5hPa Calm     91% 0.00in /  0mm
05:34 30.0 °F /  -1.1 °C 27.7 °F /  -2.4 °C 30.13in /  1020.2hPa Calm     91% 0.00in /  0mm
05:40 29.8 °F /  -1.2 °C 27.5 °F /  -2.5 °C 30.14in /  1020.5hPa Calm     91% 0.00in /  0mm
05:45 29.8 °F /  -1.2 °C 27.5 °F /  -2.5 °C 30.14in /  1020.5hPa Calm     91% 0.00in /  0mm
05:51 29.8 °F /  -1.2 °C 27.5 °F /  -2.5 °C 30.14in /  1020.5hPa Calm     91% 0.00in /  0mm
05:56 29.8 °F /  -1.2 °C 27.5 °F /  -2.5 °C 30.14in /  1020.5hPa Calm     91% 0.00in /  0mm
06:01 29.8 °F /  -1.2 °C 27.5 °F /  -2.5 °C 30.14in /  1020.5hPa Calm     91% 0.00in /  0mm
06:06 29.7 °F /  -1.3 °C 27.3 °F /  -2.6 °C 30.14in /  1020.5hPa Calm     91% 0.00in /  0mm
06:12 29.7 °F /  -1.3 °C 27.3 °F /  -2.6 °C 30.14in /  1020.5hPa Calm     91% 0.00in /  0mm
06:17 29.7 °F /  -1.3 °C 27.3 °F /  -2.6 °C 30.14in /  1020.5hPa Calm     91% 0.00in /  0mm
06:22 29.7 °F /  -1.3 °C 27.3 °F /  -2.6 °C 30.14in /  1020.5hPa Calm     91% 0.00in /  0mm
06:27 29.5 °F /  -1.4 °C 27.1 °F /  -2.7 °C 30.14in /  1020.5hPa Calm     91% 0.00in /  0mm
06:32 29.5 °F /  -1.4 °C 27.1 °F /  -2.7 °C 30.14in /  1020.5hPa Calm     91% 0.00in /  0mm
06:37 29.3 °F /  -1.5 °C 27.0 °F /  -2.8 °C 30.14in /  1020.5hPa Calm     91% 0.00in /  0mm
06:43 29.1 °F /  -1.6 °C 26.8 °F /  -2.9 °C 30.14in /  1020.5hPa Calm     91% 0.00in /  0mm
06:48 29.1 °F /  -1.6 °C 26.8 °F /  -2.9 °C 30.14in /  1020.5hPa Calm     91% 0.00in /  0mm
06:53 29.1 °F /  -1.6 °C 26.8 °F /  -2.9 °C 30.14in /  1020.5hPa Calm     91% 0.00in /  0mm
06:58 29.1 °F /  -1.6 °C 27.1 °F /  -2.7 °C 30.14in /  1020.5hPa Calm     92% 0.00in /  0mm
07:03 28.9 °F /  -1.7 °C 27.0 °F /  -2.8 °C 30.14in /  1020.5hPa Calm     92% 0.00in /  0mm
07:08 29.1 °F /  -1.6 °C 27.1 °F /  -2.7 °C 30.15in /  1020.9hPa Calm     92% 0.00in /  0mm
07:14 28.9 °F /  -1.7 °C 27.0 °F /  -2.8 °C 30.14in /  1020.5hPa Calm     92% 0.00in /  0mm
07:19 28.9 °F /  -1.7 °C 27.0 °F /  -2.8 °C 30.15in /  1020.9hPa Calm     92% 0.00in /  0mm
07:24 28.9 °F /  -1.7 °C 27.0 °F /  -2.8 °C 30.15in /  1020.9hPa Calm     92% 0.00in /  0mm
07:30 29.1 °F /  -1.6 °C 27.3 °F /  -2.6 °C 30.15in /  1020.9hPa Calm     93% 0.00in /  0mm
07:35 29.1 °F /  -1.6 °C 27.3 °F /  -2.6 °C 30.15in /  1020.9hPa Calm     93% 0.00in /  0mm
07:40 29.1 °F /  -1.6 °C 27.3 °F /  -2.6 °C 30.15in /  1020.9hPa Calm     93% 0.00in /  0mm
07:46 29.5 °F /  -1.4 °C 27.7 °F /  -2.4 °C 30.15in /  1020.9hPa Calm     93% 0.00in /  0mm
07:51 29.7 °F /  -1.3 °C 27.9 °F /  -2.3 °C 30.15in /  1020.9hPa Calm     93% 0.00in /  0mm
07:57 29.8 °F /  -1.2 °C 28.0 °F /  -2.2 °C 30.15in /  1020.9hPa Calm     93% 0.00in /  0mm
08:02 30.2 °F /  -1 °C 28.4 °F /  -2 °C 30.16in /  1021.2hPa Calm     93% 0.00in /  0mm
08:08 30.6 °F /  -0.8 °C 29.1 °F /  -1.6 °C 30.16in /  1021.2hPa Calm     94% 0.00in /  0mm
08:13 31.1 °F /  -0.5 °C 29.7 °F /  -1.3 °C 30.16in /  1021.2hPa Calm     94% 0.00in /  0mm
08:19 31.6 °F /  -0.2 °C 30.2 °F /  -1 °C 30.16in /  1021.2hPa Calm     94% 0.00in /  0mm
08:24 32.0 °F /  0 °C 30.6 °F /  -0.8 °C 30.16in /  1021.2hPa Calm     94% 0.00in /  0mm
08:30 32.4 °F /  0.2 °C 30.6 °F /  -0.8 °C 30.16in /  1021.2hPa Calm     93% 0.00in /  0mm
08:36 32.7 °F /  0.4 °C 30.9 °F /  -0.6 °C 30.16in /  1021.2hPa Calm     93% 0.00in /  0mm
08:42 33.4 °F /  0.8 °C 31.6 °F /  -0.2 °C 30.16in /  1021.2hPa Calm     93% 0.00in /  0mm
08:47 34.0 °F /  1.1 °C 32.2 °F /  0.1 °C 30.16in /  1021.2hPa Calm     93% 0.00in /  0mm
08:52 34.5 °F /  1.4 °C 32.2 °F /  0.1 °C 30.16in /  1021.2hPa Calm     91% 0.00in /  0mm
08:58 35.4 °F /  1.9 °C 32.7 °F /  0.4 °C 30.16in /  1021.2hPa Calm     90% 0.00in /  0mm
09:03 36.3 °F /  2.4 °C 33.1 °F /  0.6 °C 30.16in /  1021.2hPa Calm     88% 0.00in /  0mm
09:08 37.2 °F /  2.9 °C 33.4 °F /  0.8 °C 30.16in /  1021.2hPa Calm     86% 0.00in /  0mm
09:13 38.1 °F /  3.4 °C 34.3 °F /  1.3 °C 30.16in /  1021.2hPa NNW 0.9mph /  1.4km/h 1.0mph /  1.6km/h 86% 0.00in /  0mm
09:18 39.2 °F /  4 °C 34.5 °F /  1.4 °C 30.16in /  1021.2hPa Calm     83% 0.00in /  0mm
09:24 40.3 °F /  4.6 °C 35.2 °F /  1.8 °C 30.16in /  1021.2hPa Calm     82% 0.00in /  0mm
09:29 40.8 °F /  4.9 °C 34.5 °F /  1.4 °C 30.16in /  1021.2hPa Calm   1.0mph /  1.6km/h 78% 0.00in /  0mm
09:34 41.7 °F /  5.4 °C 35.1 °F /  1.7 °C 30.16in /  1021.2hPa Calm     77% 0.00in /  0mm
09:40 42.3 °F /  5.7 °C 34.9 °F /  1.6 °C 30.16in /  1021.2hPa Calm     75% 0.00in /  0mm
09:45 43.0 °F /  6.1 °C 35.2 °F /  1.8 °C 30.16in /  1021.2hPa Calm     74% 0.00in /  0mm
09:50 43.5 °F /  6.4 °C 35.4 °F /  1.9 °C 30.16in /  1021.2hPa Calm     73% 0.00in /  0mm
09:55 44.2 °F /  6.8 °C 35.8 °F /  2.1 °C 30.16in /  1021.2hPa Calm   2.0mph /  3.2km/h 72% 0.00in /  0mm
10:01 45.1 °F /  7.3 °C 36.0 °F /  2.2 °C 30.16in /  1021.2hPa Calm   1.0mph /  1.6km/h 70% 0.00in /  0mm
10:06 46.0 °F /  7.8 °C 36.5 °F /  2.5 °C 30.16in /  1021.2hPa Calm     69% 0.00in /  0mm
10:12 46.8 °F /  8.2 °C 36.3 °F /  2.4 °C 30.16in /  1021.2hPa NW 2.0mph /  3.2km/h 4.0mph /  6.4km/h 67% 0.00in /  0mm
10:17 47.7 °F /  8.7 °C 37.6 °F /  3.1 °C 30.16in /  1021.2hPa West 0.9mph /  1.4km/h 1.0mph /  1.6km/h 68% 0.00in /  0mm
10:23 48.2 °F /  9 °C 36.7 °F /  2.6 °C 30.16in /  1021.2hPa Calm   2.0mph /  3.2km/h 64% 0.00in /  0mm
10:28 48.7 °F /  9.3 °C 36.7 °F /  2.6 °C 30.16in /  1021.2hPa Calm   3.0mph /  4.8km/h 63% 0.00in /  0mm
10:33 49.3 °F /  9.6 °C 36.3 °F /  2.4 °C 30.16in /  1021.2hPa Calm   4.0mph /  6.4km/h 61% 0.00in /  0mm
10:38 49.8 °F /  9.9 °C 37.4 °F /  3 °C 30.16in /  1021.2hPa Calm   1.0mph /  1.6km/h 62% 0.00in /  0mm
10:43 50.5 °F /  10.3 °C 37.9 °F /  3.3 °C 30.16in /  1021.2hPa North 0.9mph /  1.4km/h 3.0mph /  4.8km/h 62% 0.00in /  0mm
10:48 51.1 °F /  10.6 °C 37.2 °F /  2.9 °C 30.16in /  1021.2hPa Calm   4.0mph /  6.4km/h 59% 0.00in /  0mm
10:53 51.6 °F /  10.9 °C 37.4 °F /  3 °C 30.16in /  1021.2hPa NNW 2.9mph /  4.7km/h 4.0mph /  6.4km/h 58% 0.00in /  0mm
10:59 52.5 °F /  11.4 °C 37.8 °F /  3.2 °C 30.16in /  1021.2hPa Calm   1.0mph /  1.6km/h 57% 0.00in /  0mm
11:04 53.2 °F /  11.8 °C 37.4 °F /  3 °C 30.16in /  1021.2hPa Calm   1.0mph /  1.6km/h 55% 0.00in /  0mm
11:09 54.0 °F /  12.2 °C 38.1 °F /  3.4 °C 30.16in /  1021.2hPa Calm   1.0mph /  1.6km/h 55% 0.00in /  0mm
11:14 54.9 °F /  12.7 °C 38.5 °F /  3.6 °C 30.16in /  1021.2hPa West 2.0mph /  3.2km/h 2.0mph /  3.2km/h 54% 0.00in /  0mm
11:20 55.6 °F /  13.1 °C 38.7 °F /  3.7 °C 30.16in /  1021.2hPa East 0.9mph /  1.4km/h 4.0mph /  6.4km/h 53% 0.00in /  0mm
11:25 55.6 °F /  13.1 °C 38.3 °F /  3.5 °C 30.16in /  1021.2hPa Calm     52% 0.00in /  0mm
11:30 55.8 °F /  13.2 °C 38.8 °F /  3.8 °C 30.16in /  1021.2hPa NW 2.0mph /  3.2km/h 4.0mph /  6.4km/h 53% 0.00in /  0mm
11:35 55.9 °F /  13.3 °C 39.0 °F /  3.9 °C 30.16in /  1021.2hPa Calm   2.0mph /  3.2km/h 53% 0.00in /  0mm
11:40 56.3 °F /  13.5 °C 38.8 °F /  3.8 °C 30.16in /  1021.2hPa Calm   1.0mph /  1.6km/h 52% 0.00in /  0mm
11:45 56.3 °F /  13.5 °C 37.9 °F /  3.3 °C 30.16in /  1021.2hPa Calm   7.0mph /  11.3km/h 50% 0.00in /  0mm
11:51 56.5 °F /  13.6 °C 38.1 °F /  3.4 °C 30.16in /  1021.2hPa North 0.9mph /  1.4km/h 2.0mph /  3.2km/h 50% 0.00in /  0mm
11:56 56.5 °F /  13.6 °C 38.1 °F /  3.4 °C 30.16in /  1021.2hPa Calm   6.0mph /  9.7km/h 50% 0.00in /  0mm
12:01 56.3 °F /  13.5 °C 37.9 °F /  3.3 °C 30.15in /  1020.9hPa NNW 0.9mph /  1.4km/h 1.0mph /  1.6km/h 50% 0.00in /  0mm
12:06 56.5 °F /  13.6 °C 38.1 °F /  3.4 °C 30.16in /  1021.2hPa Calm   4.0mph /  6.4km/h 50% 0.00in /  0mm
12:11 56.8 °F /  13.8 °C 38.5 °F /  3.6 °C 30.16in /  1021.2hPa Calm   3.0mph /  4.8km/h 50% 0.00in /  0mm
12:17 56.8 °F /  13.8 °C 38.5 °F /  3.6 °C 30.16in /  1021.2hPa NE 0.9mph /  1.4km/h 1.0mph /  1.6km/h 50% 0.00in /  0mm
12:22 57.0 °F /  13.9 °C 38.5 °F /  3.6 °C 30.15in /  1020.9hPa Calm   1.0mph /  1.6km/h 50% 0.00in /  0mm
12:27 57.0 °F /  13.9 °C 37.6 °F /  3.1 °C 30.15in /  1020.9hPa West 2.0mph /  3.2km/h 2.0mph /  3.2km/h 48% 0.00in /  0mm
12:32 57.0 °F /  13.9 °C 38.1 °F /  3.4 °C 30.15in /  1020.9hPa Calm   4.0mph /  6.4km/h 49% 0.00in /  0mm
12:37 57.4 °F /  14.1 °C 38.8 °F /  3.8 °C 30.15in /  1020.9hPa Calm   5.0mph /  8km/h 50% 0.00in /  0mm
12:43 57.9 °F /  14.4 °C 39.9 °F /  4.4 °C 30.15in /  1020.9hPa NNW 0.9mph /  1.4km/h 7.0mph /  11.3km/h 51% 0.00in /  0mm
12:48 57.9 °F /  14.4 °C 37.8 °F /  3.2 °C 30.14in /  1020.5hPa Calm   6.0mph /  9.7km/h 47% 0.00in /  0mm
12:53 58.1 °F /  14.5 °C 39.6 °F /  4.2 °C 30.14in /  1020.5hPa Calm   2.0mph /  3.2km/h 50% 0.00in /  0mm
12:58 58.5 °F /  14.7 °C 39.9 °F /  4.4 °C 30.14in /  1020.5hPa Calm   2.0mph /  3.2km/h 50% 0.00in /  0mm
13:04 58.6 °F /  14.8 °C 39.0 °F /  3.9 °C 30.14in /  1020.5hPa Calm   2.0mph /  3.2km/h 48% 0.00in /  0mm
13:09 58.8 °F /  14.9 °C 39.7 °F /  4.3 °C 30.13in /  1020.2hPa Calm   2.0mph /  3.2km/h 49% 0.00in /  0mm
13:14 59.4 °F /  15.2 °C 39.7 °F /  4.3 °C 30.13in /  1020.2hPa Calm   3.0mph /  4.8km/h 48% 0.00in /  0mm
13:19 59.4 °F /  15.2 °C 39.2 °F /  4 °C 30.13in /  1020.2hPa Calm     47% 0.00in /  0mm
13:24 59.4 °F /  15.2 °C 39.2 °F /  4 °C 30.13in /  1020.2hPa WNW 4.9mph /  7.9km/h 5.0mph /  8km/h 47% 0.00in /  0mm
13:29 59.4 °F /  15.2 °C 40.3 °F /  4.6 °C 30.13in /  1020.2hPa Calm   1.0mph /  1.6km/h 49% 0.00in /  0mm
13:34 59.9 °F /  15.5 °C 41.7 °F /  5.4 °C 30.12in /  1019.9hPa Calm   5.0mph /  8km/h 51% 0.00in /  0mm
13:40 60.3 °F /  15.7 °C 41.0 °F /  5 °C 30.12in /  1019.9hPa Calm     49% 0.00in /  0mm
13:45 60.4 °F /  15.8 °C 41.2 °F /  5.1 °C 30.12in /  1019.9hPa North 0.9mph /  1.4km/h 4.0mph /  6.4km/h 49% 0.00in /  0mm
13:50 60.6 °F /  15.9 °C 41.4 °F /  5.2 °C 30.12in /  1019.9hPa NW 2.9mph /  4.7km/h 3.0mph /  4.8km/h 49% 0.00in /  0mm
13:56 61.0 °F /  16.1 °C 40.6 °F /  4.8 °C 30.12in /  1019.9hPa Calm   2.0mph /  3.2km/h 47% 0.00in /  0mm
14:01 61.0 °F /  16.1 °C 41.2 °F /  5.1 °C 30.12in /  1019.9hPa Calm   6.0mph /  9.7km/h 48% 0.00in /  0mm
14:06 61.0 °F /  16.1 °C 42.3 °F /  5.7 °C 30.12in /  1019.9hPa Calm   4.0mph /  6.4km/h 50% 0.00in /  0mm
14:11 61.3 °F /  16.3 °C 42.6 °F /  5.9 °C 30.12in /  1019.9hPa Calm   1.0mph /  1.6km/h 50% 0.00in /  0mm
14:16 61.5 °F /  16.4 °C 41.7 °F /  5.4 °C 30.11in /  1019.5hPa Calm   1.0mph /  1.6km/h 48% 0.00in /  0mm
14:22 61.9 °F /  16.6 °C 40.8 °F /  4.9 °C 30.11in /  1019.5hPa Calm   4.0mph /  6.4km/h 46% 0.00in /  0mm
14:27 62.2 °F /  16.8 °C 41.7 °F /  5.4 °C 30.10in /  1019.2hPa Calm   5.0mph /  8km/h 47% 0.00in /  0mm
14:32 62.2 °F /  16.8 °C 41.2 °F /  5.1 °C 30.10in /  1019.2hPa West 0.9mph /  1.4km/h 6.0mph /  9.7km/h 46% 0.00in /  0mm
14:37 62.8 °F /  17.1 °C 43.3 °F /  6.3 °C 30.10in /  1019.2hPa WSW 2.0mph /  3.2km/h 4.0mph /  6.4km/h 49% 0.00in /  0mm
14:42 63.0 °F /  17.2 °C 43.0 °F /  6.1 °C 30.10in /  1019.2hPa Calm   7.0mph /  11.3km/h 48% 0.00in /  0mm
14:47 63.1 °F /  17.3 °C 43.2 °F /  6.2 °C 30.09in /  1018.8hPa WNW 2.9mph /  4.7km/h 7.0mph /  11.3km/h 48% 0.00in /  0mm
14:52 63.1 °F /  17.3 °C 42.6 °F /  5.9 °C 30.09in /  1018.8hPa Calm   5.0mph /  8km/h 47% 0.00in /  0mm
14:57 63.5 °F /  17.5 °C 43.5 °F /  6.4 °C 30.09in /  1018.8hPa Calm   1.0mph /  1.6km/h 48% 0.00in /  0mm
15:03 63.9 °F /  17.7 °C 43.2 °F /  6.2 °C 30.09in /  1018.8hPa WNW 0.9mph /  1.4km/h 6.0mph /  9.7km/h 47% 0.00in /  0mm
15:08 64.0 °F /  17.8 °C 43.9 °F /  6.6 °C 30.08in /  1018.5hPa Calm   7.0mph /  11.3km/h 48% 0.00in /  0mm
15:13 64.4 °F /  18 °C 43.7 °F /  6.5 °C 30.08in /  1018.5hPa WNW 0.9mph /  1.4km/h 2.0mph /  3.2km/h 47% 0.00in /  0mm
15:19 64.6 °F /  18.1 °C 43.9 °F /  6.6 °C 30.08in /  1018.5hPa Calm   3.0mph /  4.8km/h 47% 0.00in /  0mm
15:24 64.9 °F /  18.3 °C 44.8 °F /  7.1 °C 30.07in /  1018.2hPa Calm   2.0mph /  3.2km/h 48% 0.00in /  0mm
15:29 65.5 °F /  18.6 °C 45.3 °F /  7.4 °C 30.07in /  1018.2hPa Calm     48% 0.00in /  0mm
15:35 65.7 °F /  18.7 °C 45.5 °F /  7.5 °C 30.06in /  1017.8hPa Calm   1.0mph /  1.6km/h 48% 0.00in /  0mm
15:40 65.8 °F /  18.8 °C 44.4 °F /  6.9 °C 30.06in /  1017.8hPa NNW 6.0mph /  9.7km/h 8.0mph /  12.9km/h 46% 0.00in /  0mm
15:45 66.0 °F /  18.9 °C 45.1 °F /  7.3 °C 30.06in /  1017.8hPa Calm   5.0mph /  8km/h 47% 0.00in /  0mm
15:50 66.6 °F /  19.2 °C 45.7 °F /  7.6 °C 30.06in /  1017.8hPa Calm   1.0mph /  1.6km/h 47% 0.00in /  0mm
15:55 66.7 °F /  19.3 °C 45.3 °F /  7.4 °C 30.06in /  1017.8hPa Calm   7.0mph /  11.3km/h 46% 0.00in /  0mm
16:01 66.7 °F /  19.3 °C 45.3 °F /  7.4 °C 30.05in /  1017.5hPa Calm   5.0mph /  8km/h 46% 0.00in /  0mm
16:07 67.1 °F /  19.5 °C 46.2 °F /  7.9 °C 30.05in /  1017.5hPa ESE 4.0mph /  6.4km/h 8.0mph /  12.9km/h 47% 0.00in /  0mm
16:12 67.3 °F /  19.6 °C 45.9 °F /  7.7 °C 30.04in /  1017.2hPa North 0.9mph /  1.4km/h 1.0mph /  1.6km/h 46% 0.00in /  0mm
16:17 67.5 °F /  19.7 °C 46.6 °F /  8.1 °C 30.04in /  1017.2hPa Calm   3.0mph /  4.8km/h 47% 0.00in /  0mm
16:22 67.8 °F /  19.9 °C 47.5 °F /  8.6 °C 30.03in /  1016.8hPa WNW 0.9mph /  1.4km/h 5.0mph /  8km/h 48% 0.00in /  0mm
16:27 68.4 °F /  20.2 °C 47.3 °F /  8.5 °C 30.03in /  1016.8hPa Calm   5.0mph /  8km/h 47% 0.00in /  0mm
16:32 68.5 °F /  20.3 °C 48.0 °F /  8.9 °C 30.03in /  1016.8hPa SE 0.9mph /  1.4km/h 4.0mph /  6.4km/h 48% 0.00in /  0mm
16:37 68.7 °F /  20.4 °C 47.1 °F /  8.4 °C 30.02in /  1016.5hPa Calm   5.0mph /  8km/h 46% 0.00in /  0mm
16:42 69.1 °F /  20.6 °C 48.0 °F /  8.9 °C 30.02in /  1016.5hPa Calm   5.0mph /  8km/h 47% 0.00in /  0mm
16:48 69.1 °F /  20.6 °C 47.5 °F /  8.6 °C 30.02in /  1016.5hPa Calm   4.0mph /  6.4km/h 46% 0.00in /  0mm
16:53 69.1 °F /  20.6 °C 49.1 °F /  9.5 °C 30.02in /  1016.5hPa Calm   1.0mph /  1.6km/h 49% 0.00in /  0mm
16:58 69.1 °F /  20.6 °C 48.0 °F /  8.9 °C 30.02in /  1016.5hPa WNW 2.9mph /  4.7km/h 7.0mph /  11.3km/h 47% 0.00in /  0mm
17:03 69.3 °F /  20.7 °C 48.2 °F /  9 °C 30.02in /  1016.5hPa WNW 0.9mph /  1.4km/h 4.0mph /  6.4km/h 47% 0.00in /  0mm
17:09 69.4 °F /  20.8 °C 48.9 °F /  9.4 °C 30.02in /  1016.5hPa Calm     48% 0.00in /  0mm
17:14 69.6 °F /  20.9 °C 47.8 °F /  8.8 °C 30.02in /  1016.5hPa WSW 0.9mph /  1.4km/h 2.0mph /  3.2km/h 46% 0.00in /  0mm
17:19 69.4 °F /  20.8 °C 48.4 °F /  9.1 °C 30.02in /  1016.5hPa Calm   1.0mph /  1.6km/h 47% 0.00in /  0mm
17:24 69.3 °F /  20.7 °C 48.7 °F /  9.3 °C 30.01in /  1016.1hPa Calm   2.0mph /  3.2km/h 48% 0.00in /  0mm
17:29 69.3 °F /  20.7 °C 48.7 °F /  9.3 °C 30.01in /  1016.1hPa West 0.9mph /  1.4km/h 4.0mph /  6.4km/h 48% 0.00in /  0mm
17:35 69.4 °F /  20.8 °C 49.5 °F /  9.7 °C 30.01in /  1016.1hPa Calm   3.0mph /  4.8km/h 49% 0.00in /  0mm
17:40 69.6 °F /  20.9 °C 49.1 °F /  9.5 °C 30.01in /  1016.1hPa ESE 0.9mph /  1.4km/h 4.0mph /  6.4km/h 48% 0.00in /  0mm
17:45 69.6 °F /  20.9 °C 49.1 °F /  9.5 °C 30.01in /  1016.1hPa Calm   3.0mph /  4.8km/h 48% 0.00in /  0mm
17:51 69.4 °F /  20.8 °C 48.9 °F /  9.4 °C 30.01in /  1016.1hPa Calm   3.0mph /  4.8km/h 48% 0.00in /  0mm
17:56 69.6 °F /  20.9 °C 49.6 °F /  9.8 °C 30.01in /  1016.1hPa Calm   2.0mph /  3.2km/h 49% 0.00in /  0mm
18:01 69.4 °F /  20.8 °C 49.5 °F /  9.7 °C 30.00in /  1015.8hPa Calm   1.0mph /  1.6km/h 49% 0.00in /  0mm
18:06 69.4 °F /  20.8 °C 50.0 °F /  10 °C 30.00in /  1015.8hPa Calm   3.0mph /  4.8km/h 50% 0.00in /  0mm
18:12 69.4 °F /  20.8 °C 50.0 °F /  10 °C 30.00in /  1015.8hPa Calm   3.0mph /  4.8km/h 50% 0.00in /  0mm
18:17 69.4 °F /  20.8 °C 49.5 °F /  9.7 °C 30.00in /  1015.8hPa WNW 2.0mph /  3.2km/h 5.0mph /  8km/h 49% 0.00in /  0mm
18:22 69.6 °F /  20.9 °C 49.1 °F /  9.5 °C 30.00in /  1015.8hPa Calm   4.0mph /  6.4km/h 48% 0.00in /  0mm
18:28 69.4 °F /  20.8 °C 48.9 °F /  9.4 °C 30.00in /  1015.8hPa Calm   1.0mph /  1.6km/h 48% 0.00in /  0mm
18:33 69.6 °F /  20.9 °C 49.6 °F /  9.8 °C 30.00in /  1015.8hPa Calm     49% 0.00in /  0mm
18:38 69.6 °F /  20.9 °C 49.6 °F /  9.8 °C 29.99in /  1015.5hPa Calm   1.0mph /  1.6km/h 49% 0.00in /  0mm
18:43 69.4 °F /  20.8 °C 49.5 °F /  9.7 °C 29.99in /  1015.5hPa Calm   2.0mph /  3.2km/h 49% 0.00in /  0mm
18:49 69.3 °F /  20.7 °C 50.9 °F /  10.5 °C 29.99in /  1015.5hPa WNW 4.0mph /  6.4km/h 9.0mph /  14.5km/h 52% 0.00in /  0mm
18:54 69.3 °F /  20.7 °C 49.3 °F /  9.6 °C 29.99in /  1015.5hPa Calm   1.0mph /  1.6km/h 49% 0.00in /  0mm
18:59 69.3 °F /  20.7 °C 49.3 °F /  9.6 °C 29.99in /  1015.5hPa Calm     49% 0.00in /  0mm
19:04 69.1 °F /  20.6 °C 49.6 °F /  9.8 °C 29.99in /  1015.5hPa NW 0.9mph /  1.4km/h 1.0mph /  1.6km/h 50% 0.00in /  0mm
19:10 68.9 °F /  20.5 °C 49.5 °F /  9.7 °C 29.99in /  1015.5hPa Calm     50% 0.00in /  0mm
19:15 68.5 °F /  20.3 °C 49.6 °F /  9.8 °C 29.99in /  1015.5hPa NNW 4.0mph /  6.4km/h 4.0mph /  6.4km/h 51% 0.00in /  0mm
19:20 68.4 °F /  20.2 °C 48.4 °F /  9.1 °C 29.99in /  1015.5hPa East 0.9mph /  1.4km/h 2.0mph /  3.2km/h 49% 0.00in /  0mm
19:25 68.4 °F /  20.2 °C 48.9 °F /  9.4 °C 29.99in /  1015.5hPa North 0.9mph /  1.4km/h 1.0mph /  1.6km/h 50% 0.00in /  0mm
19:30 68.2 °F /  20.1 °C 48.4 °F /  9.1 °C 29.98in /  1015.1hPa Calm   2.0mph /  3.2km/h 49% 0.00in /  0mm
19:35 68.0 °F /  20 °C 49.3 °F /  9.6 °C 29.99in /  1015.5hPa Calm     51% 0.00in /  0mm
19:41 67.6 °F /  19.8 °C 48.4 °F /  9.1 °C 29.98in /  1015.1hPa Calm     50% 0.00in /  0mm
19:46 67.6 °F /  19.8 °C 48.4 °F /  9.1 °C 29.98in /  1015.1hPa Calm   2.0mph /  3.2km/h 50% 0.00in /  0mm
19:52 67.3 °F /  19.6 °C 48.0 °F /  8.9 °C 29.98in /  1015.1hPa Calm   1.0mph /  1.6km/h 50% 0.00in /  0mm
19:57 67.1 °F /  19.5 °C 48.4 °F /  9.1 °C 29.98in /  1015.1hPa Calm     51% 0.00in /  0mm
20:02 66.7 °F /  19.3 °C 48.6 °F /  9.2 °C 29.98in /  1015.1hPa Calm     52% 0.00in /  0mm
20:07 66.4 °F /  19.1 °C 48.2 °F /  9 °C 29.98in /  1015.1hPa Calm     52% 0.00in /  0mm
20:13 66.0 °F /  18.9 °C 47.8 °F /  8.8 °C 29.98in /  1015.1hPa Calm     52% 0.00in /  0mm
20:18 65.7 °F /  18.7 °C 48.0 °F /  8.9 °C 29.98in /  1015.1hPa Calm     53% 0.00in /  0mm
20:23 65.3 °F /  18.5 °C 47.7 °F /  8.7 °C 29.99in /  1015.5hPa Calm     53% 0.00in /  0mm
20:29 64.9 °F /  18.3 °C 47.8 °F /  8.8 °C 29.99in /  1015.5hPa Calm     54% 0.00in /  0mm
20:34 64.4 °F /  18 °C 47.8 °F /  8.8 °C 29.99in /  1015.5hPa Calm     55% 0.00in /  0mm
20:40 64.0 °F /  17.8 °C 48.0 °F /  8.9 °C 29.99in /  1015.5hPa Calm     56% 0.00in /  0mm
20:45 63.7 °F /  17.6 °C 48.2 °F /  9 °C 29.99in /  1015.5hPa Calm     57% 0.00in /  0mm
20:50 63.1 °F /  17.3 °C 48.2 °F /  9 °C 29.99in /  1015.5hPa Calm     58% 0.00in /  0mm
20:55 62.8 °F /  17.1 °C 48.2 °F /  9 °C 29.99in /  1015.5hPa Calm     59% 0.00in /  0mm
21:00 62.2 °F /  16.8 °C 48.2 °F /  9 °C 29.99in /  1015.5hPa Calm     60% 0.00in /  0mm
21:05 62.1 °F /  16.7 °C 48.4 °F /  9.1 °C 29.99in /  1015.5hPa Calm     61% 0.00in /  0mm
21:11 61.3 °F /  16.3 °C 48.2 °F /  9 °C 29.99in /  1015.5hPa Calm     62% 0.00in /  0mm
21:16 61.0 °F /  16.1 °C 48.4 °F /  9.1 °C 29.99in /  1015.5hPa Calm     63% 0.00in /  0mm
21:22 60.3 °F /  15.7 °C 48.4 °F /  9.1 °C 29.99in /  1015.5hPa Calm     65% 0.00in /  0mm
21:27 59.7 °F /  15.4 °C 48.7 °F /  9.3 °C 29.99in /  1015.5hPa Calm     67% 0.00in /  0mm
21:33 59.2 °F /  15.1 °C 48.6 °F /  9.2 °C 29.99in /  1015.5hPa Calm     68% 0.00in /  0mm
21:38 58.6 °F /  14.8 °C 48.6 °F /  9.2 °C 30.00in /  1015.8hPa Calm     69% 0.00in /  0mm
21:44 58.1 °F /  14.5 °C 48.4 °F /  9.1 °C 30.00in /  1015.8hPa Calm     70% 0.00in /  0mm
21:50 57.6 °F /  14.2 °C 48.2 °F /  9 °C 30.00in /  1015.8hPa Calm     71% 0.00in /  0mm
21:55 57.2 °F /  14 °C 48.2 °F /  9 °C 30.00in /  1015.8hPa Calm     72% 0.00in /  0mm
22:00 56.8 °F /  13.8 °C 48.2 °F /  9 °C 30.00in /  1015.8hPa Calm     73% 0.00in /  0mm
22:05 56.5 °F /  13.6 °C 48.4 °F /  9.1 °C 30.00in /  1015.8hPa Calm     74% 0.00in /  0mm
22:10 55.9 °F /  13.3 °C 48.2 °F /  9 °C 30.00in /  1015.8hPa Calm     75% 0.00in /  0mm
22:16 55.4 °F /  13 °C 47.7 °F /  8.7 °C 30.00in /  1015.8hPa Calm     75% 0.00in /  0mm
22:21 55.0 °F /  12.8 °C 47.7 °F /  8.7 °C 30.01in /  1016.1hPa Calm     76% 0.00in /  0mm
22:26 54.7 °F /  12.6 °C 47.7 °F /  8.7 °C 30.01in /  1016.1hPa Calm     77% 0.00in /  0mm
22:31 54.3 °F /  12.4 °C 47.7 °F /  8.7 °C 30.01in /  1016.1hPa Calm     78% 0.00in /  0mm
22:37 54.0 °F /  12.2 °C 47.3 °F /  8.5 °C 30.01in /  1016.1hPa Calm     78% 0.00in /  0mm
22:43 53.8 °F /  12.1 °C 47.5 °F /  8.6 °C 30.01in /  1016.1hPa Calm     79% 0.00in /  0mm
22:48 53.4 °F /  11.9 °C 47.1 °F /  8.4 °C 30.01in /  1016.1hPa Calm     79% 0.00in /  0mm
22:54 53.2 °F /  11.8 °C 47.3 °F /  8.5 °C 30.01in /  1016.1hPa Calm     80% 0.00in /  0mm
22:59 52.9 °F /  11.6 °C 47.3 °F /  8.5 °C 30.01in /  1016.1hPa Calm     81% 0.00in /  0mm
23:05 52.5 °F /  11.4 °C 46.9 °F /  8.3 °C 30.01in /  1016.1hPa Calm     81% 0.00in /  0mm
23:10 52.3 °F /  11.3 °C 46.9 °F /  8.3 °C 30.01in /  1016.1hPa Calm     82% 0.00in /  0mm
23:15 52.3 °F /  11.3 °C 46.9 °F /  8.3 °C 30.01in /  1016.1hPa Calm     82% 0.00in /  0mm
23:21 52.2 °F /  11.2 °C 47.1 °F /  8.4 °C 30.01in /  1016.1hPa Calm     83% 0.00in /  0mm
23:26 51.8 °F /  11 °C 46.8 °F /  8.2 °C 30.01in /  1016.1hPa Calm     83% 0.00in /  0mm
23:31 51.6 °F /  10.9 °C 46.6 °F /  8.1 °C 30.01in /  1016.1hPa Calm     83% 0.00in /  0mm
23:36 51.4 °F /  10.8 °C 46.8 °F /  8.2 °C 30.01in /  1016.1hPa Calm     84% 0.00in /  0mm
23:41 51.4 °F /  10.8 °C 46.8 °F /  8.2 °C 30.01in /  1016.1hPa Calm     84% 0.00in /  0mm
23:46 51.4 °F /  10.8 °C 46.8 °F /  8.2 °C 30.01in /  1016.1hPa Calm     84% 0.00in /  0mm
23:51 51.4 °F /  10.8 °C 46.8 °F /  8.2 °C 30.01in /  1016.1hPa Calm     84% 0.00in /  0mm
23:57 51.3 °F /  10.7 °C 46.9 °F /  8.3 °C 30.01in /  1016.1hPa Calm     85% 0.00in /  0mm
Ellijay Weather
Compliments of Weather Underground - 2.5 mb